Time;durP1;ratioP1;P1;durP2;ratioP2;P2;SDS_P1;SDS_P2;PMS_P1;PMS_P2;Temp;Humidity;BMP_temperature;BMP_pressure;BME280_temperature;BME280_humidity;BME280_pressure;Samples;Min_cycle;Max_cycle;Signal;HPM_P1;HPM_P2
2023/09/21 00:00:11;;;;;;;4.17;2.90;;;;;;;;;;4952809;28;20193;-76
2023/09/21 00:02:38;;;;;;;3.43;2.90;;;;;;;;;;4953029;28;20217;-76
2023/09/21 00:05:06;;;;;;;4.90;3.30;;;;;;;;;;4952531;28;20197;-76
2023/09/21 00:07:32;;;;;;;4.90;3.10;;;;;;;;;;4952480;28;20304;-75
2023/09/21 00:09:58;;;;;;;3.70;2.70;;;;;;;;;;4952541;28;20521;-76
2023/09/21 00:12:24;;;;;;;4.30;3.20;;;;;;;;;;4952781;29;20559;-76
2023/09/21 00:14:50;;;;;;;4.60;3.07;;;;;;;;;;4951527;29;20189;-76
2023/09/21 00:17:17;;;;;;;5.10;3.37;;;;;;;;;;4952295;29;20255;-76
2023/09/21 00:19:44;;;;;;;4.13;2.97;;;;;;;;;;4952331;28;20181;-76
2023/09/21 00:22:11;;;;;;;5.47;2.77;;;;;;;;;;4951407;29;20237;-76
2023/09/21 00:24:37;;;;;;;3.83;3.00;;;;;;;;;;4952625;28;20684;-76
2023/09/21 00:27:04;;;;;;;6.07;3.30;;;;;;;;;;4951009;29;20685;-76
2023/09/21 00:29:30;;;;;;;3.57;3.17;;;;;;;;;;4951134;29;20187;-76
2023/09/21 00:31:58;;;;;;;6.00;2.90;;;;;;;;;;4952505;28;20220;-76
2023/09/21 00:34:25;;;;;;;3.77;2.90;;;;;;;;;;4952519;28;20716;-76
2023/09/21 00:36:51;;;;;;;5.23;3.00;;;;;;;;;;4952561;29;20192;-76
2023/09/21 00:39:17;;;;;;;4.27;2.93;;;;;;;;;;4952124;28;20215;-76
2023/09/21 00:41:44;;;;;;;4.80;3.00;;;;;;;;;;4952437;28;20211;-76
2023/09/21 00:44:10;;;;;;;3.33;3.03;;;;;;;;;;4953176;28;20647;-76
2023/09/21 00:46:38;;;;;;;4.20;3.10;;;;;;;;;;4952236;29;20729;-76
2023/09/21 01:12:33;;;;;;;4.20;2.93;;;;;;;;;;4947343;29;20937;-76
2023/09/21 01:15:11;;;;;;;3.63;3.17;;;;;;;;;;4951654;28;20189;-76
2023/09/21 01:17:45;;;;;;;3.30;3.00;;;;;;;;;;4954938;28;20805;-76
2023/09/21 01:20:22;;;;;;;6.60;3.80;;;;;;;;;;4954527;29;20736;-76
2023/09/21 01:23:08;;;;;;;4.43;3.40;;;;;;;;;;4955528;28;20193;-76
2023/09/21 01:25:41;;;;;;;4.47;2.90;;;;;;;;;;4955512;28;20197;-76
2023/09/21 01:28:13;;;;;;;4.93;3.13;;;;;;;;;;4955022;28;20344;-75
2023/09/21 01:30:40;;;;;;;5.33;3.10;;;;;;;;;;4951861;28;20178;-76
2023/09/21 01:33:11;;;;;;;4.63;2.90;;;;;;;;;;4956356;28;20189;-76
2023/09/21 01:35:43;;;;;;;3.40;2.87;;;;;;;;;;4948872;29;20204;-76
2023/09/21 01:38:09;;;;;;;3.77;3.07;;;;;;;;;;4954809;28;20228;-76
2023/09/21 01:40:36;;;;;;;5.07;3.53;;;;;;;;;;4948563;29;20196;-76
2023/09/21 01:43:07;;;;;;;4.60;3.00;;;;;;;;;;4953127;29;20203;-77
2023/09/21 01:45:33;;;;;;;3.63;3.10;;;;;;;;;;4954741;28;20181;-77
2023/09/21 01:48:00;;;;;;;4.00;3.20;;;;;;;;;;4950864;29;20241;-76
2023/09/21 01:50:28;;;;;;;3.83;3.27;;;;;;;;;;4969140;28;20181;-76
2023/09/21 01:52:55;;;;;;;4.20;3.00;;;;;;;;;;4952521;29;20208;-76
2023/09/21 01:55:21;;;;;;;5.50;3.30;;;;;;;;;;4955026;28;20178;-76
2023/09/21 01:57:47;;;;;;;3.67;2.93;;;;;;;;;;4953285;29;20224;-76
2023/09/21 02:00:27;;;;;;;5.03;3.10;;;;;;;;;;4953346;29;20536;-76
2023/09/21 02:02:54;;;;;;;6.13;3.40;;;;;;;;;;4954853;28;20197;-76
2023/09/21 02:05:20;;;;;;;3.60;3.00;;;;;;;;;;4938036;29;20269;-76
2023/09/21 02:07:47;;;;;;;5.80;3.30;;;;;;;;;;4953253;29;20657;-76
2023/09/21 02:10:17;;;;;;;5.83;3.17;;;;;;;;;;4953300;29;20189;-76
2023/09/21 02:12:56;;;;;;;3.60;3.20;;;;;;;;;;4953590;29;20197;-76
2023/09/21 02:15:23;;;;;;;6.17;2.93;;;;;;;;;;4949542;28;20669;-76
2023/09/21 02:17:50;;;;;;;4.20;2.83;;;;;;;;;;4950486;29;20308;-76
2023/09/21 02:20:16;;;;;;;3.90;2.97;;;;;;;;;;4937512;29;20672;-76
2023/09/21 02:22:46;;;;;;;3.20;2.77;;;;;;;;;;4954512;28;20186;-76
2023/09/21 02:25:14;;;;;;;4.03;3.30;;;;;;;;;;4952967;29;20649;-77
2023/09/21 02:27:43;;;;;;;4.70;3.30;;;;;;;;;;4952849;28;20221;-76
2023/09/21 02:30:14;;;;;;;4.80;3.40;;;;;;;;;;4953195;29;20196;-76
2023/09/21 02:32:45;;;;;;;3.60;3.13;;;;;;;;;;4953207;29;20208;-76
2023/09/21 02:35:16;;;;;;;4.23;3.10;;;;;;;;;;4953840;29;20185;-76
2023/09/21 02:37:45;;;;;;;4.90;3.13;;;;;;;;;;4954417;28;20800;-76
2023/09/21 02:40:16;;;;;;;4.63;3.07;;;;;;;;;;4950875;29;20189;-76
2023/09/21 02:42:45;;;;;;;3.30;2.83;;;;;;;;;;4954702;28;20185;-76
2023/09/21 02:45:12;;;;;;;3.60;3.20;;;;;;;;;;4959967;28;20208;-77
2023/09/21 02:47:39;;;;;;;3.50;3.10;;;;;;;;;;4952748;29;20216;-76
2023/09/21 02:50:14;;;;;;;4.73;2.90;;;;;;;;;;4954089;28;20198;-76
2023/09/21 02:52:43;;;;;;;4.30;2.97;;;;;;;;;;4953970;28;20192;-76
2023/09/21 02:55:09;;;;;;;5.37;3.20;;;;;;;;;;4959696;28;20333;-76
2023/09/21 02:57:37;;;;;;;3.27;2.70;;;;;;;;;;4953984;28;20211;-76
2023/09/21 03:00:13;;;;;;;5.90;3.03;;;;;;;;;;4952435;29;20197;-76
2023/09/21 03:02:39;;;;;;;4.00;3.00;;;;;;;;;;4937232;29;20185;-76
2023/09/21 03:05:10;;;;;;;5.50;2.83;;;;;;;;;;4953826;28;20204;-76
2023/09/21 03:07:43;;;;;;;4.13;2.70;;;;;;;;;;4954032;28;20631;-76
2023/09/21 03:10:10;;;;;;;4.93;2.47;;;;;;;;;;4966669;28;20217;-76
2023/09/21 03:12:37;;;;;;;4.20;2.80;;;;;;;;;;4952465;29;20648;-76
2023/09/21 03:15:07;;;;;;;3.40;2.60;;;;;;;;;;4952363;29;20693;-76
2023/09/21 03:17:36;;;;;;;4.60;2.87;;;;;;;;;;4932865;29;20218;-76
2023/09/21 03:20:09;;;;;;;4.10;3.10;;;;;;;;;;4951109;29;20193;-76
2023/09/21 03:22:35;;;;;;;4.63;3.03;;;;;;;;;;4953565;28;20199;-76
2023/09/21 03:25:02;;;;;;;3.00;2.70;;;;;;;;;;4953405;28;20196;-76
2023/09/21 03:27:28;;;;;;;3.90;2.90;;;;;;;;;;4952105;29;20224;-76
2023/09/21 03:29:55;;;;;;;4.23;2.90;;;;;;;;;;4953271;29;20208;-76
2023/09/21 03:32:21;;;;;;;3.20;2.90;;;;;;;;;;4969419;28;20499;-77
2023/09/21 03:34:47;;;;;;;3.50;3.00;;;;;;;;;;4936326;29;20591;-76
2023/09/21 03:37:13;;;;;;;5.07;2.97;;;;;;;;;;4952190;29;20201;-76
2023/09/21 03:39:40;;;;;;;4.90;3.30;;;;;;;;;;4952294;28;20192;-76
2023/09/21 03:42:06;;;;;;;3.80;3.13;;;;;;;;;;4953525;29;20244;-76
2023/09/21 03:44:32;;;;;;;3.37;2.47;;;;;;;;;;4952106;29;20268;-76
2023/09/21 03:46:59;;;;;;;3.43;2.67;;;;;;;;;;4951871;29;20256;-76
2023/09/21 03:49:25;;;;;;;3.27;2.60;;;;;;;;;;4935984;29;20204;-76
2023/09/21 03:51:51;;;;;;;4.10;2.93;;;;;;;;;;4948626;29;20212;-76
2023/09/21 03:54:17;;;;;;;3.60;2.80;;;;;;;;;;4946413;29;20264;-75
2023/09/21 03:56:44;;;;;;;4.87;3.10;;;;;;;;;;4932902;29;20293;-75
2023/09/21 03:59:11;;;;;;;3.23;2.90;;;;;;;;;;4951076;29;20212;-75
2023/09/21 04:01:37;;;;;;;3.77;2.50;;;;;;;;;;4948517;29;20193;-75
2023/09/21 04:04:09;;;;;;;3.67;2.57;;;;;;;;;;4951906;29;20250;-75
2023/09/21 04:06:36;;;;;;;3.10;2.53;;;;;;;;;;4931244;29;20237;-75
2023/09/21 04:09:06;;;;;;;2.83;2.50;;;;;;;;;;4951212;29;20267;-75
2023/09/21 04:11:34;;;;;;;3.47;2.60;;;;;;;;;;4937811;29;20216;-75
2023/09/21 04:14:01;;;;;;;4.20;2.97;;;;;;;;;;4952495;28;20189;-75
2023/09/21 04:16:28;;;;;;;3.23;2.87;;;;;;;;;;4967265;28;20208;-75
2023/09/21 04:18:55;;;;;;;4.43;2.57;;;;;;;;;;4950679;29;20227;-75
2023/09/21 04:21:23;;;;;;;3.10;2.57;;;;;;;;;;4952242;28;20185;-75
2023/09/21 04:23:50;;;;;;;4.23;2.60;;;;;;;;;;4952095;28;20601;-76
2023/09/21 04:26:16;;;;;;;4.27;3.17;;;;;;;;;;4935240;29;20200;-76
2023/09/21 04:28:43;;;;;;;3.50;2.90;;;;;;;;;;4953065;28;20272;-76
2023/09/21 04:31:09;;;;;;;3.53;2.67;;;;;;;;;;4934885;29;20189;-76
2023/09/21 04:33:36;;;;;;;3.80;2.90;;;;;;;;;;4951160;29;20193;-76
2023/09/21 04:36:02;;;;;;;4.47;2.90;;;;;;;;;;4952263;28;20185;-76
2023/09/21 04:38:28;;;;;;;3.10;2.80;;;;;;;;;;4952093;29;20209;-76
2023/09/21 04:40:54;;;;;;;3.60;2.57;;;;;;;;;;4949026;29;20182;-76
2023/09/21 04:43:21;;;;;;;3.33;2.50;;;;;;;;;;4951198;29;20181;-76
2023/09/21 04:45:51;;;;;;;4.27;2.83;;;;;;;;;;4951249;29;20181;-75
2023/09/21 04:48:17;;;;;;;3.40;2.80;;;;;;;;;;4937025;29;20763;-77
2023/09/21 04:50:46;;;;;;;3.20;2.80;;;;;;;;;;4951709;28;20216;-78
2023/09/21 04:53:13;;;;;;;6.27;2.97;;;;;;;;;;4954690;29;20193;-78
2023/09/21 04:55:40;;;;;;;4.10;2.90;;;;;;;;;;4957661;28;20233;-78
2023/09/21 04:58:06;;;;;;;4.60;2.50;;;;;;;;;;4954755;29;20204;-77
2023/09/21 05:00:33;;;;;;;3.43;2.63;;;;;;;;;;4955050;29;20197;-77
2023/09/21 05:02:59;;;;;;;4.20;2.60;;;;;;;;;;4954827;29;20200;-78
2023/09/21 05:05:26;;;;;;;3.43;2.80;;;;;;;;;;4955247;29;20276;-78
2023/09/21 05:07:53;;;;;;;4.53;2.77;;;;;;;;;;4954724;29;20635;-78
2023/09/21 05:10:19;;;;;;;2.97;2.50;;;;;;;;;;4951441;29;20272;-78
2023/09/21 05:12:51;;;;;;;4.53;2.73;;;;;;;;;;4952923;29;20234;-78
2023/09/21 05:15:18;;;;;;;3.10;2.80;;;;;;;;;;4956385;28;20236;-78
2023/09/21 05:17:44;;;;;;;2.50;2.30;;;;;;;;;;4955716;29;20217;-78
2023/09/21 05:20:11;;;;;;;4.50;3.23;;;;;;;;;;4954178;29;20197;-78
2023/09/21 05:22:40;;;;;;;3.77;3.20;;;;;;;;;;4956240;28;20696;-78
2023/09/21 05:25:07;;;;;;;3.40;2.97;;;;;;;;;;4956055;28;20189;-78
2023/09/21 05:27:33;;;;;;;3.23;2.93;;;;;;;;;;4955175;28;20221;-78
2023/09/21 05:30:00;;;;;;;3.83;2.63;;;;;;;;;;4937887;29;20641;-77
2023/09/21 05:32:27;;;;;;;4.37;3.40;;;;;;;;;;4954712;29;20204;-81
2023/09/21 05:34:53;;;;;;;4.63;3.70;;;;;;;;;;4956286;28;20204;-77
2023/09/21 05:37:19;;;;;;;3.27;2.90;;;;;;;;;;4953585;28;20185;-77
2023/09/21 05:39:46;;;;;;;3.13;2.43;;;;;;;;;;4954978;29;20526;-77
2023/09/21 05:42:15;;;;;;;4.00;3.03;;;;;;;;;;4954446;28;20192;-76
2023/09/21 05:44:42;;;;;;;3.57;2.60;;;;;;;;;;4952333;29;20196;-80
2023/09/21 05:47:09;;;;;;;4.13;2.73;;;;;;;;;;4953120;29;20681;-78
2023/09/21 05:49:37;;;;;;;5.50;2.67;;;;;;;;;;4954899;29;20196;-80
2023/09/21 05:52:11;;;;;;;5.50;3.03;;;;;;;;;;4952849;28;20189;-79
2023/09/21 05:54:38;;;;;;;4.97;2.70;;;;;;;;;;4955146;28;20207;-75
2023/09/21 05:57:04;;;;;;;5.47;3.00;;;;;;;;;;4954089;28;20196;-78
2023/09/21 05:59:31;;;;;;;5.60;3.10;;;;;;;;;;4954158;28;20181;-77
2023/09/21 06:01:57;;;;;;;3.80;3.10;;;;;;;;;;4954232;28;20185;-78
2023/09/21 06:04:24;;;;;;;6.27;3.30;;;;;;;;;;4956167;29;20185;-78
2023/09/21 06:06:56;;;;;;;4.23;2.83;;;;;;;;;;4954053;28;20569;-77
2023/09/21 06:09:22;;;;;;;6.27;3.23;;;;;;;;;;4950933;29;20268;-77
2023/09/21 06:11:48;;;;;;;3.83;2.80;;;;;;;;;;4952849;28;20187;-78
2023/09/21 06:14:19;;;;;;;5.53;3.30;;;;;;;;;;4953452;28;20264;-76
2023/09/21 06:16:45;;;;;;;5.00;3.27;;;;;;;;;;4968062;28;20205;-76
2023/09/21 06:19:12;;;;;;;5.47;3.13;;;;;;;;;;4954530;29;20209;-76
2023/09/21 06:21:39;;;;;;;5.40;3.50;;;;;;;;;;4954695;29;20258;-77
2023/09/21 06:24:09;;;;;;;4.33;3.50;;;;;;;;;;4955302;29;20181;-76
2023/09/21 06:26:36;;;;;;;5.20;3.20;;;;;;;;;;4955744;29;20235;-77
2023/09/21 06:29:03;;;;;;;4.60;2.70;;;;;;;;;;4954520;28;20745;-77
2023/09/21 06:31:29;;;;;;;4.40;3.30;;;;;;;;;;4955699;28;20185;-77
2023/09/21 06:33:58;;;;;;;4.47;3.27;;;;;;;;;;4955768;28;20212;-77
2023/09/21 06:36:30;;;;;;;3.60;3.10;;;;;;;;;;4955198;29;20182;-78
2023/09/21 06:38:59;;;;;;;4.47;3.40;;;;;;;;;;4954385;28;20212;-77
2023/09/21 06:41:26;;;;;;;5.10;3.00;;;;;;;;;;4956066;29;20224;-77
2023/09/21 06:43:52;;;;;;;4.40;3.37;;;;;;;;;;4955675;28;20189;-79
2023/09/21 06:46:18;;;;;;;6.03;3.90;;;;;;;;;;4955031;29;20189;-79
2023/09/21 06:48:45;;;;;;;4.40;3.57;;;;;;;;;;4952998;29;20641;-79
2023/09/21 06:51:12;;;;;;;5.33;3.47;;;;;;;;;;4954316;28;20236;-79
2023/09/21 06:53:38;;;;;;;5.17;3.77;;;;;;;;;;4954734;28;20193;-79
2023/09/21 06:56:05;;;;;;;5.17;3.57;;;;;;;;;;4953647;29;20208;-79
2023/09/21 06:58:32;;;;;;;4.67;3.43;;;;;;;;;;4954266;28;20209;-79
2023/09/21 07:00:58;;;;;;;4.90;3.30;;;;;;;;;;4954779;29;20691;-79
2023/09/21 07:03:25;;;;;;;4.87;3.67;;;;;;;;;;4922267;29;20537;-79
2023/09/21 07:05:51;;;;;;;6.33;4.10;;;;;;;;;;4954674;28;20669;-79
2023/09/21 07:08:17;;;;;;;7.97;3.63;;;;;;;;;;4954560;29;20220;-79
2023/09/21 07:10:44;;;;;;;5.20;4.23;;;;;;;;;;4953643;29;20190;-79
2023/09/21 07:13:11;;;;;;;5.30;3.87;;;;;;;;;;4954697;28;20324;-79
2023/09/21 07:15:37;;;;;;;5.53;4.10;;;;;;;;;;4953358;29;20288;-79
2023/09/21 07:18:07;;;;;;;4.53;3.80;;;;;;;;;;4951904;29;20223;-79
2023/09/21 07:20:34;;;;;;;6.57;4.40;;;;;;;;;;4953171;28;20272;-78
2023/09/21 07:23:00;;;;;;;6.83;4.20;;;;;;;;;;4954737;28;20272;-79
2023/09/21 07:25:28;;;;;;;5.10;3.90;;;;;;;;;;4954170;29;20189;-79
2023/09/21 07:27:55;;;;;;;5.47;4.00;;;;;;;;;;4954096;29;20614;-79
2023/09/21 07:30:21;;;;;;;7.47;4.57;;;;;;;;;;4954520;28;20185;-79
2023/09/21 07:32:48;;;;;;;5.20;4.30;;;;;;;;;;4953679;28;20252;-79
2023/09/21 07:35:14;;;;;;;4.93;4.23;;;;;;;;;;4952928;29;20185;-79
2023/09/21 07:37:46;;;;;;;6.63;4.00;;;;;;;;;;4950008;29;20210;-79
2023/09/21 07:40:16;;;;;;;6.03;4.30;;;;;;;;;;4935997;29;20205;-78
2023/09/21 07:42:48;;;;;;;7.67;4.40;;;;;;;;;;4955108;28;20196;-79
2023/09/21 07:45:15;;;;;;;7.03;4.20;;;;;;;;;;4953797;29;20601;-79
2023/09/21 07:47:42;;;;;;;6.90;4.13;;;;;;;;;;4952329;29;20220;-79
2023/09/21 07:50:09;;;;;;;6.90;4.50;;;;;;;;;;4968640;28;20676;-79
2023/09/21 07:52:35;;;;;;;6.23;4.30;;;;;;;;;;4954143;29;20573;-79
2023/09/21 07:55:02;;;;;;;5.57;3.93;;;;;;;;;;4953854;29;20619;-79
2023/09/21 07:57:37;;;;;;;5.47;3.93;;;;;;;;;;4953654;28;20216;-79
2023/09/21 08:00:05;;;;;;;8.03;4.40;;;;;;;;;;4953755;29;20672;-79
2023/09/21 08:02:31;;;;;;;6.30;4.30;;;;;;;;;;4954349;28;20196;-79
2023/09/21 08:04:58;;;;;;;5.03;4.10;;;;;;;;;;4953938;29;20283;-79
2023/09/21 08:07:27;;;;;;;6.23;4.50;;;;;;;;;;4953497;29;20227;-79
2023/09/21 08:09:57;;;;;;;6.60;4.30;;;;;;;;;;4968466;28;20216;-79
2023/09/21 08:12:27;;;;;;;5.57;3.93;;;;;;;;;;4954015;28;20195;-79
2023/09/21 08:14:53;;;;;;;7.80;4.50;;;;;;;;;;4953749;28;20653;-79
2023/09/21 08:17:20;;;;;;;8.57;4.37;;;;;;;;;;4952595;29;20201;-78
2023/09/21 08:19:46;;;;;;;7.97;4.27;;;;;;;;;;4952459;29;20192;-78
2023/09/21 08:22:13;;;;;;;7.40;4.27;;;;;;;;;;4967495;28;20291;-79
2023/09/21 08:24:41;;;;;;;5.30;3.90;;;;;;;;;;4951377;28;20189;-78
2023/09/21 08:27:08;;;;;;;5.80;3.87;;;;;;;;;;4952852;29;20213;-79
2023/09/21 08:29:34;;;;;;;6.93;4.13;;;;;;;;;;4952339;28;20234;-78
2023/09/21 08:32:01;;;;;;;6.47;3.90;;;;;;;;;;4953056;29;20177;-78
2023/09/21 08:34:28;;;;;;;6.50;4.10;;;;;;;;;;4952988;28;20248;-79
2023/09/21 08:36:54;;;;;;;5.13;4.00;;;;;;;;;;4935511;29;20189;-78
2023/09/21 08:39:20;;;;;;;6.43;4.23;;;;;;;;;;4952354;29;20256;-79
2023/09/21 08:41:48;;;;;;;6.83;4.00;;;;;;;;;;4952621;29;20187;-79
2023/09/21 08:44:16;;;;;;;4.80;3.83;;;;;;;;;;4967121;28;20189;-79
2023/09/21 08:46:43;;;;;;;6.27;3.83;;;;;;;;;;4952564;28;20224;-79
2023/09/21 08:49:10;;;;;;;5.67;3.90;;;;;;;;;;4952195;29;20205;-79
2023/09/21 08:51:39;;;;;;;5.40;4.10;;;;;;;;;;4951838;29;20343;-79
2023/09/21 08:54:07;;;;;;;5.10;3.83;;;;;;;;;;4952704;29;20590;-79
2023/09/21 08:56:36;;;;;;;7.50;4.60;;;;;;;;;;4952444;29;20192;-79
2023/09/21 08:59:04;;;;;;;6.00;4.30;;;;;;;;;;4952377;28;20723;-79
2023/09/21 09:01:30;;;;;;;6.57;4.23;;;;;;;;;;4952686;28;20189;-79
2023/09/21 09:03:58;;;;;;;7.80;4.43;;;;;;;;;;4934344;29;20194;-79
2023/09/21 09:06:24;;;;;;;5.87;4.30;;;;;;;;;;4952858;29;20220;-78
2023/09/21 09:08:51;;;;;;;6.10;4.17;;;;;;;;;;4951837;29;20376;-79
2023/09/21 09:11:40;;;;;;;5.03;3.87;;;;;;;;;;4952486;29;20232;-78
2023/09/21 09:14:22;;;;;;;7.87;4.10;;;;;;;;;;4952468;28;20215;-78
2023/09/21 09:16:49;;;;;;;5.93;3.90;;;;;;;;;;4948114;29;20208;-78
2023/09/21 09:19:16;;;;;;;8.37;4.57;;;;;;;;;;4950747;29;20837;-79
2023/09/21 09:21:44;;;;;;;6.57;4.50;;;;;;;;;;4953013;29;20252;-78
2023/09/21 09:24:13;;;;;;;6.30;4.00;;;;;;;;;;4948992;29;20186;-79
2023/09/21 09:26:41;;;;;;;5.87;4.40;;;;;;;;;;4932037;29;20220;-78
2023/09/21 09:29:13;;;;;;;6.37;4.37;;;;;;;;;;4951845;29;20320;-79
2023/09/21 09:31:43;;;;;;;9.83;4.50;;;;;;;;;;4938150;29;20190;-79
2023/09/21 09:34:16;;;;;;;7.57;4.27;;;;;;;;;;4937652;29;20189;-79
2023/09/21 09:36:45;;;;;;;7.27;4.87;;;;;;;;;;4938718;29;20646;-79
2023/09/21 09:39:14;;;;;;;4.30;3.70;;;;;;;;;;4958926;28;20693;-79
2023/09/21 09:41:41;;;;;;;5.90;3.70;;;;;;;;;;4958844;28;20185;-79
2023/09/21 09:44:10;;;;;;;6.23;3.90;;;;;;;;;;4957593;28;20566;-78
2023/09/21 09:46:41;;;;;;;7.17;3.90;;;;;;;;;;4956822;29;20193;-78
2023/09/21 09:49:08;;;;;;;6.13;3.80;;;;;;;;;;4955937;28;20343;-79
2023/09/21 09:51:42;;;;;;;7.80;4.20;;;;;;;;;;4954524;29;20576;-79
2023/09/21 09:54:11;;;;;;;4.50;3.80;;;;;;;;;;4970648;28;20744;-79
2023/09/21 09:56:41;;;;;;;5.33;3.40;;;;;;;;;;4954727;29;20217;-79
2023/09/21 09:59:09;;;;;;;4.60;3.57;;;;;;;;;;4969903;28;20213;-79
2023/09/21 10:01:37;;;;;;;3.70;3.30;;;;;;;;;;4955771;29;20277;-79
2023/09/21 10:04:06;;;;;;;4.43;3.27;;;;;;;;;;4955684;28;20194;-79
2023/09/21 10:06:35;;;;;;;5.73;2.93;;;;;;;;;;4955916;29;20198;-78
2023/09/21 10:09:02;;;;;;;3.73;3.00;;;;;;;;;;4954764;28;20241;-79
2023/09/21 10:11:29;;;;;;;3.50;2.90;;;;;;;;;;4951059;29;20281;-79
2023/09/21 10:13:56;;;;;;;3.63;3.20;;;;;;;;;;4952930;29;20657;-79
2023/09/21 10:16:26;;;;;;;6.37;3.87;;;;;;;;;;4955822;28;20199;-79
2023/09/21 10:18:55;;;;;;;3.97;3.30;;;;;;;;;;4953851;29;20634;-79
2023/09/21 10:21:31;;;;;;;4.57;3.23;;;;;;;;;;4948356;29;20621;-78
2023/09/21 10:24:02;;;;;;;3.53;2.90;;;;;;;;;;4960254;29;20680;-79
2023/09/21 10:26:32;;;;;;;4.17;3.03;;;;;;;;;;4955791;28;20266;-78
2023/09/21 10:28:58;;;;;;;2.80;2.60;;;;;;;;;;4954606;29;20214;-79
2023/09/21 10:31:27;;;;;;;2.93;2.70;;;;;;;;;;4955209;28;20185;-79
2023/09/21 10:33:56;;;;;;;3.27;2.30;;;;;;;;;;4951290;29;20212;-78
2023/09/21 10:36:22;;;;;;;2.67;2.10;;;;;;;;;;4955057;28;20211;-79
2023/09/21 10:39:09;;;;;;;2.70;1.90;;;;;;;;;;4954854;28;20260;-79
2023/09/21 10:41:36;;;;;;;2.60;2.10;;;;;;;;;;4949479;29;20192;-79
2023/09/21 10:44:02;;;;;;;2.33;1.90;;;;;;;;;;4953631;29;20189;-79
2023/09/21 10:46:35;;;;;;;2.17;1.90;;;;;;;;;;4954897;28;20192;-79
2023/09/21 10:49:04;;;;;;;2.77;2.27;;;;;;;;;;4954077;28;20321;-79
2023/09/21 10:51:34;;;;;;;3.83;2.10;;;;;;;;;;4955692;29;20564;-79
2023/09/21 10:54:03;;;;;;;2.00;1.80;;;;;;;;;;4956502;28;20189;-79
2023/09/21 10:56:31;;;;;;;2.17;1.90;;;;;;;;;;4955173;28;20653;-79
2023/09/21 10:58:57;;;;;;;2.13;1.80;;;;;;;;;;4953119;29;20209;-79
2023/09/21 11:01:23;;;;;;;1.90;1.80;;;;;;;;;;4950321;29;20194;-79
2023/09/21 11:03:50;;;;;;;2.57;1.87;;;;;;;;;;4951313;29;20193;-79
2023/09/21 11:06:19;;;;;;;2.80;1.90;;;;;;;;;;4954510;29;20225;-78
2023/09/21 11:08:48;;;;;;;3.77;1.80;;;;;;;;;;4954635;29;20219;-78
2023/09/21 11:11:16;;;;;;;1.70;1.60;;;;;;;;;;4954457;29;20490;-78
2023/09/21 11:13:42;;;;;;;2.40;1.90;;;;;;;;;;4954719;28;20680;-78
2023/09/21 11:16:09;;;;;;;2.13;1.80;;;;;;;;;;4953262;29;20192;-78
2023/09/21 11:18:38;;;;;;;1.67;1.50;;;;;;;;;;4955257;28;20213;-79
2023/09/21 11:21:05;;;;;;;1.70;1.60;;;;;;;;;;4954275;29;20196;-79
2023/09/21 11:23:34;;;;;;;2.03;1.67;;;;;;;;;;4954088;29;20276;-79
2023/09/21 11:26:00;;;;;;;2.27;1.70;;;;;;;;;;4954154;29;20220;-79
2023/09/21 11:28:27;;;;;;;2.37;1.70;;;;;;;;;;4936572;29;20233;-79
2023/09/21 11:30:56;;;;;;;4.20;1.70;;;;;;;;;;4936801;29;20248;-79
2023/09/21 11:33:22;;;;;;;1.70;1.60;;;;;;;;;;4954195;28;20649;-78
2023/09/21 11:35:49;;;;;;;2.20;1.60;;;;;;;;;;4953924;28;20185;-79
2023/09/21 11:38:16;;;;;;;1.93;1.70;;;;;;;;;;4953648;29;20297;-79
2023/09/21 11:40:42;;;;;;;1.80;1.70;;;;;;;;;;4954419;28;20272;-79
2023/09/21 11:43:16;;;;;;;2.03;1.60;;;;;;;;;;4954874;28;20257;-79
2023/09/21 11:45:46;;;;;;;1.80;1.50;;;;;;;;;;4954570;28;20272;-77
2023/09/21 11:48:12;;;;;;;1.83;1.60;;;;;;;;;;4952770;28;20281;-78
2023/09/21 11:50:39;;;;;;;2.07;1.60;;;;;;;;;;4953268;28;20189;-78
2023/09/21 11:53:09;;;;;;;1.93;1.50;;;;;;;;;;4953194;28;20190;-78
2023/09/21 11:55:40;;;;;;;1.60;1.47;;;;;;;;;;4968166;28;20197;-78
2023/09/21 11:58:07;;;;;;;1.77;1.57;;;;;;;;;;4952881;28;20299;-78
2023/09/21 12:00:43;;;;;;;1.93;1.50;;;;;;;;;;4951345;28;20188;-78
2023/09/21 12:03:13;;;;;;;1.70;1.60;;;;;;;;;;4952951;28;20184;-78
2023/09/21 12:05:43;;;;;;;1.80;1.40;;;;;;;;;;4968264;28;20204;-78
2023/09/21 12:08:14;;;;;;;1.77;1.60;;;;;;;;;;4952536;28;20642;-78
2023/09/21 12:10:47;;;;;;;2.97;1.30;;;;;;;;;;4951815;29;20206;-78
2023/09/21 12:13:14;;;;;;;1.40;1.30;;;;;;;;;;4952873;28;20432;-78
2023/09/21 12:15:41;;;;;;;1.20;1.10;;;;;;;;;;4952811;29;20190;-78
2023/09/21 12:18:10;;;;;;;3.03;1.30;;;;;;;;;;4952405;28;20212;-78
2023/09/21 12:20:37;;;;;;;1.60;1.30;;;;;;;;;;4952981;29;20196;-79
2023/09/21 12:23:07;;;;;;;1.90;1.40;;;;;;;;;;4952730;28;20271;-78
2023/09/21 12:25:33;;;;;;;3.03;1.20;;;;;;;;;;4951575;29;20558;-78
2023/09/21 12:27:59;;;;;;;1.87;1.53;;;;;;;;;;4968259;28;20232;-78
2023/09/21 12:30:26;;;;;;;1.50;1.40;;;;;;;;;;4953660;28;20641;-78
2023/09/21 12:32:53;;;;;;;1.50;1.40;;;;;;;;;;4951414;29;20189;-78
2023/09/21 12:35:25;;;;;;;1.70;1.40;;;;;;;;;;4945264;29;20287;-78
2023/09/21 12:37:51;;;;;;;1.20;1.10;;;;;;;;;;4952225;28;20205;-78
2023/09/21 12:40:17;;;;;;;1.30;1.20;;;;;;;;;;4966244;28;20197;-78
2023/09/21 12:42:45;;;;;;;2.30;1.60;;;;;;;;;;4952429;28;20199;-78
2023/09/21 12:45:12;;;;;;;2.37;1.50;;;;;;;;;;4952390;28;20393;-78
2023/09/21 12:47:42;;;;;;;2.27;1.50;;;;;;;;;;4952194;29;20275;-78
2023/09/21 12:50:12;;;;;;;4.23;1.60;;;;;;;;;;4952264;28;20185;-78
2023/09/21 12:52:40;;;;;;;4.30;1.70;;;;;;;;;;4952598;29;20191;-78
2023/09/21 12:55:06;;;;;;;1.53;1.40;;;;;;;;;;4952163;28;20211;-78
2023/09/21 12:57:35;;;;;;;4.23;1.70;;;;;;;;;;4952090;28;20232;-78
2023/09/21 13:00:14;;;;;;;1.73;1.43;;;;;;;;;;4951232;29;20244;-78
2023/09/21 13:02:40;;;;;;;2.13;1.53;;;;;;;;;;4952431;29;20555;-78
2023/09/21 13:05:08;;;;;;;2.30;1.57;;;;;;;;;;4952473;29;20190;-78
2023/09/21 13:07:35;;;;;;;3.67;1.67;;;;;;;;;;4952064;28;20289;-78
2023/09/21 13:10:01;;;;;;;2.70;1.40;;;;;;;;;;4951975;28;20182;-78
2023/09/21 13:12:28;;;;;;;3.47;1.57;;;;;;;;;;4952642;28;20657;-78
2023/09/21 13:14:54;;;;;;;1.60;1.50;;;;;;;;;;4955950;28;20266;-78
2023/09/21 13:17:21;;;;;;;1.73;1.40;;;;;;;;;;4954702;29;20585;-78
2023/09/21 13:19:50;;;;;;;1.50;1.33;;;;;;;;;;4955511;28;20187;-78
2023/09/21 13:22:19;;;;;;;1.33;1.10;;;;;;;;;;4955805;29;20230;-78
2023/09/21 13:24:46;;;;;;;1.53;1.40;;;;;;;;;;4955882;28;20185;-78
2023/09/21 13:27:13;;;;;;;1.80;1.40;;;;;;;;;;4955611;28;20213;-78
2023/09/21 13:29:40;;;;;;;1.63;1.43;;;;;;;;;;4955442;28;20743;-78
2023/09/21 13:32:07;;;;;;;2.13;1.50;;;;;;;;;;4955741;28;20671;-78
2023/09/21 13:34:33;;;;;;;2.17;1.50;;;;;;;;;;4938942;29;20201;-78
2023/09/21 13:36:59;;;;;;;1.57;1.30;;;;;;;;;;4954502;29;20197;-78
2023/09/21 13:39:28;;;;;;;1.30;1.20;;;;;;;;;;4955194;28;20213;-78
2023/09/21 13:41:58;;;;;;;1.50;1.40;;;;;;;;;;4955855;28;20281;-78
2023/09/21 13:44:26;;;;;;;2.43;1.37;;;;;;;;;;4955477;29;20200;-78
2023/09/21 13:46:53;;;;;;;1.50;1.40;;;;;;;;;;4954091;29;20181;-78
2023/09/21 13:49:19;;;;;;;1.60;1.30;;;;;;;;;;4948047;29;20256;-78
2023/09/21 13:51:46;;;;;;;2.47;1.60;;;;;;;;;;4951133;29;20272;-78
2023/09/21 13:54:13;;;;;;;2.03;1.60;;;;;;;;;;4954916;29;20214;-78
2023/09/21 13:56:40;;;;;;;1.37;1.20;;;;;;;;;;4955395;29;20191;-78
2023/09/21 13:59:06;;;;;;;2.23;1.50;;;;;;;;;;4954580;28;20717;-78
2023/09/21 14:01:32;;;;;;;1.80;1.40;;;;;;;;;;4954083;29;20204;-78
2023/09/21 14:03:58;;;;;;;3.53;1.80;;;;;;;;;;4970313;28;20247;-78
2023/09/21 14:06:27;;;;;;;1.90;1.67;;;;;;;;;;4955549;28;20189;-77
2023/09/21 14:08:53;;;;;;;2.30;1.50;;;;;;;;;;4954475;28;20241;-78
2023/09/21 14:11:20;;;;;;;1.73;1.43;;;;;;;;;;4955257;29;20189;-77
2023/09/21 14:13:46;;;;;;;2.97;1.70;;;;;;;;;;4954016;29;20181;-78
2023/09/21 14:16:12;;;;;;;1.77;1.53;;;;;;;;;;4955399;28;20208;-78
2023/09/21 14:18:39;;;;;;;3.00;1.60;;;;;;;;;;4956422;28;20217;-78
2023/09/21 14:21:06;;;;;;;1.67;1.47;;;;;;;;;;4953934;29;20189;-78
2023/09/21 14:23:33;;;;;;;1.57;1.40;;;;;;;;;;4953596;28;20281;-78
2023/09/21 14:26:14;;;;;;;1.60;1.50;;;;;;;;;;4955629;28;20585;-79
2023/09/21 14:28:40;;;;;;;1.67;1.30;;;;;;;;;;4953642;29;20229;-79
2023/09/21 14:31:06;;;;;;;2.60;1.30;;;;;;;;;;4971444;28;20275;-78
2023/09/21 14:33:32;;;;;;;1.40;1.30;;;;;;;;;;4955973;29;20245;-78
2023/09/21 14:35:59;;;;;;;1.77;1.43;;;;;;;;;;4954945;29;20190;-77
2023/09/21 14:38:25;;;;;;;2.80;1.47;;;;;;;;;;4954554;29;20234;-77
2023/09/21 14:40:51;;;;;;;2.00;1.60;;;;;;;;;;4969882;28;20256;-77
2023/09/21 14:43:18;;;;;;;1.60;1.37;;;;;;;;;;4969981;28;20201;-77
2023/09/21 14:45:45;;;;;;;1.90;1.50;;;;;;;;;;4954594;28;20274;-77
2023/09/21 14:48:11;;;;;;;2.03;1.53;;;;;;;;;;4969340;28;20229;-77
2023/09/21 14:50:38;;;;;;;1.40;1.30;;;;;;;;;;4953444;29;20190;-77
2023/09/21 14:53:04;;;;;;;1.70;1.50;;;;;;;;;;4954738;29;20267;-77
2023/09/21 14:55:31;;;;;;;2.00;1.43;;;;;;;;;;4953748;29;20268;-77
2023/09/21 14:57:57;;;;;;;2.37;1.50;;;;;;;;;;4954662;28;20232;-78
2023/09/21 15:00:24;;;;;;;1.63;1.47;;;;;;;;;;4954507;28;20193;-77
2023/09/21 15:02:50;;;;;;;1.83;1.53;;;;;;;;;;4954901;28;20197;-79
2023/09/21 15:05:16;;;;;;;2.50;1.40;;;;;;;;;;4954644;29;20196;-78
2023/09/21 15:07:42;;;;;;;1.77;1.50;;;;;;;;;;4954204;28;20639;-78
2023/09/21 15:10:09;;;;;;;1.43;1.30;;;;;;;;;;4954389;28;20228;-78